Time;durP1;ratioP1;P1;durP2;ratioP2;P2;SDS_P1;SDS_P2;PMS_P1;PMS_P2;Temp;Humidity;BMP_temperature;BMP_pressure;BME280_temperature;BME280_humidity;BME280_pressure;Samples;Min_cycle;Max_cycle;Signal;HPM_P1;HPM_P2
2021/12/23 00:01:44;;;;;;;24.07;10.60;;;-1.70;99.90;;;;;;5013415;28;20416;-77
2021/12/23 00:04:14;;;;;;;24.37;11.10;;;-1.70;99.90;;;;;;5018964;28;20301;-77
2021/12/23 00:06:46;;;;;;;21.87;10.70;;;-1.70;99.90;;;;;;5030528;28;20341;-78
2021/12/23 00:09:18;;;;;;;25.00;11.33;;;-1.70;99.90;;;;;;5016832;28;20320;-77
2021/12/23 00:11:43;;;;;;;19.77;10.03;;;-1.70;99.90;;;;;;5015571;28;20272;-78
2021/12/23 00:14:14;;;;;;;30.40;11.07;;;-1.60;99.90;;;;;;5015196;28;20282;-77
2021/12/23 00:16:46;;;;;;;28.77;10.23;;;-1.50;99.90;;;;;;5030412;28;20029;-77
2021/12/23 00:24:59;;;;;;;30.10;11.67;;;-1.50;99.90;;;;;;5014056;28;20304;-77
2021/12/23 00:27:30;;;;;;;24.70;11.07;;;-1.50;99.90;;;;;;5014906;28;20288;-77
2021/12/23 00:29:55;;;;;;;25.57;11.63;;;-1.40;99.90;;;;;;5028825;28;20292;-77
2021/12/23 00:32:21;;;;;;;29.40;11.03;;;-1.40;99.90;;;;;;5014488;28;20419;-77
2021/12/23 00:34:47;;;;;;;22.60;9.83;;;-1.60;99.90;;;;;;5018612;28;20029;-77
2021/12/23 00:37:13;;;;;;;26.37;10.50;;;-1.70;99.90;;;;;;5019269;28;20022;-77
2021/12/23 00:39:48;;;;;;;28.00;11.47;;;-1.60;99.90;;;;;;5018705;28;20090;-77
2021/12/23 00:42:30;;;;;;;22.20;10.30;;;-1.70;99.90;;;;;;5015594;28;20032;-77
2021/12/23 00:44:58;;;;;;;23.00;10.00;;;-1.60;99.90;;;;;;5001565;28;20297;-77
2021/12/23 00:47:27;;;;;;;26.03;10.50;;;-1.70;99.90;;;;;;5019079;28;20014;-77
2021/12/23 00:49:52;;;;;;;27.27;11.40;;;-1.60;99.90;;;;;;5015068;28;20346;-77
2021/12/23 00:52:28;;;;;;;22.97;10.50;;;-1.60;99.90;;;;;;5018486;28;20281;-77
2021/12/23 00:55:03;;;;;;;30.07;11.50;;;-1.70;99.90;;;;;;5015174;28;20023;-77
2021/12/23 00:57:30;;;;;;;32.87;12.20;;;-1.60;99.90;;;;;;5019714;28;20292;-77
2021/12/23 00:59:57;;;;;;;26.37;11.90;;;-1.70;99.90;;;;;;5015454;28;20286;-77
2021/12/23 01:02:31;;;;;;;26.77;11.30;;;-1.60;99.90;;;;;;5030657;28;20315;-77
2021/12/23 01:05:00;;;;;;;27.30;11.73;;;-1.60;99.90;;;;;;5017838;28;20293;-76
2021/12/23 01:07:36;;;;;;;27.47;11.47;;;-1.60;99.90;;;;;;5015927;28;20317;-79
2021/12/23 01:10:08;;;;;;;27.87;11.27;;;-1.80;99.90;;;;;;5017916;28;20304;-77
2021/12/23 01:12:49;;;;;;;28.50;11.32;;;-1.80;99.90;;;;;;5019079;28;20273;-78
2021/12/23 01:15:38;;;;;;;27.83;11.20;;;-1.80;99.90;;;;;;5019459;28;21112;-76
2021/12/23 01:18:19;;;;;;;23.00;9.30;;;-2.00;99.90;;;;;;5013833;28;20313;-78
2021/12/23 01:21:03;;;;;;;25.98;10.88;;;-1.80;99.90;;;;;;5017038;28;20301;-76
2021/12/23 01:23:34;;;;;;;28.00;11.53;;;-1.80;99.90;;;;;;5014413;28;20023;-76
2021/12/23 01:26:05;;;;;;;26.37;12.37;;;-1.80;99.90;;;;;;5028664;28;20309;-76
2021/12/23 01:28:36;;;;;;;30.63;12.10;;;-1.80;99.90;;;;;;5014586;28;20292;-79
2021/12/23 01:31:04;;;;;;;25.17;10.30;;;-1.90;99.90;;;;;;5014284;28;20425;-76
2021/12/23 01:33:37;;;;;;;27.73;12.37;;;-1.90;99.90;;;;;;5018945;28;20284;-76
2021/12/23 01:36:06;;;;;;;26.53;11.20;;;-1.90;99.90;;;;;;5014456;28;20285;-78
2021/12/23 01:38:41;;;;;;;23.10;10.43;;;-1.80;99.90;;;;;;5018989;28;20312;-78
2021/12/23 01:41:10;;;;;;;29.40;12.00;;;-1.80;99.90;;;;;;5018230;28;20272;-78
2021/12/23 01:43:36;;;;;;;23.93;10.83;;;-1.90;99.90;;;;;;5030251;28;20353;-78
2021/12/23 01:46:04;;;;;;;26.13;11.03;;;-1.90;99.90;;;;;;5018555;28;20300;-78
2021/12/23 01:48:32;;;;;;;30.87;11.23;;;-1.90;99.90;;;;;;5017481;28;20018;-78
2021/12/23 01:51:02;;;;;;;27.43;10.67;;;-1.90;99.90;;;;;;5014793;28;20284;-78
2021/12/23 01:53:30;;;;;;;28.63;11.23;;;-2.00;99.90;;;;;;5029603;28;20289;-78
2021/12/23 01:55:59;;;;;;;22.83;10.83;;;-2.00;99.90;;;;;;5028742;28;20277;-78
2021/12/23 01:58:33;;;;;;;26.63;10.80;;;-2.00;99.90;;;;;;5013986;28;20277;-78
2021/12/23 02:01:15;;;;;;;26.93;11.13;;;-1.80;99.90;;;;;;5012733;28;20291;-78
2021/12/23 02:03:44;;;;;;;26.70;11.27;;;-1.80;99.90;;;;;;5002984;28;20524;-78
2021/12/23 02:06:10;;;;;;;37.40;12.20;;;-1.70;99.90;;;;;;5029446;28;20038;-78
2021/12/23 02:08:39;;;;;;;27.37;11.10;;;-1.70;99.90;;;;;;5017259;28;20289;-78
2021/12/23 02:11:06;;;;;;;22.63;11.27;;;-1.70;99.90;;;;;;5028948;28;21143;-78
2021/12/23 02:13:33;;;;;;;27.80;11.30;;;-1.80;99.90;;;;;;5029281;28;20289;-78
2021/12/23 02:16:01;;;;;;;25.77;11.10;;;-1.70;99.90;;;;;;5030686;28;20285;-78
2021/12/23 02:18:28;;;;;;;29.97;11.53;;;-1.90;99.90;;;;;;5013738;28;20388;-78
2021/12/23 02:20:57;;;;;;;27.33;12.03;;;-1.80;99.90;;;;;;5017869;28;20300;-78
2021/12/23 02:23:24;;;;;;;27.23;11.97;;;-1.70;99.90;;;;;;5013085;28;20278;-78
2021/12/23 02:25:49;;;;;;;28.53;11.77;;;-1.70;99.90;;;;;;5013234;28;20292;-78
2021/12/23 02:28:25;;;;;;;27.17;11.57;;;-1.60;99.90;;;;;;5015308;28;20284;-78
2021/12/23 02:30:54;;;;;;;26.53;12.03;;;-1.60;99.90;;;;;;5028408;28;20022;-78
2021/12/23 02:33:23;;;;;;;24.17;11.83;;;-1.60;99.90;;;;;;5013913;28;20417;-78
2021/12/23 02:35:49;;;;;;;24.70;11.43;;;-1.40;99.90;;;;;;5028068;28;20283;-78
2021/12/23 02:38:20;;;;;;;25.10;10.30;;;-1.40;99.90;;;;;;5029575;28;20281;-78
2021/12/23 02:40:49;;;;;;;25.93;11.60;;;-1.40;99.90;;;;;;5014233;28;20294;-78
2021/12/23 02:43:26;;;;;;;27.43;11.63;;;-1.30;99.90;;;;;;5028393;28;20288;-78
2021/12/23 02:45:57;;;;;;;27.90;11.17;;;-1.30;99.90;;;;;;5029530;28;20336;-77
2021/12/23 02:48:30;;;;;;;24.33;10.10;;;-1.10;99.90;;;;;;5016502;28;20277;-78
2021/12/23 02:51:08;;;;;;;29.77;11.63;;;-1.10;99.90;;;;;;5018968;28;20272;-78
2021/12/23 02:53:37;;;;;;;21.93;10.07;;;-0.90;99.90;;;;;;5004803;28;20286;-78
2021/12/23 02:56:10;;;;;;;30.60;12.40;;;-1.00;99.90;;;;;;5017684;28;20277;-78
2021/12/23 02:58:39;;;;;;;28.33;11.57;;;-1.00;99.90;;;;;;5020598;28;20285;-78
2021/12/23 03:01:16;;;;;;;27.03;11.37;;;-0.90;99.90;;;;;;5017595;28;20304;-78
2021/12/23 03:03:45;;;;;;;26.43;11.07;;;-0.90;99.90;;;;;;5020769;28;20293;-78
2021/12/23 03:06:18;;;;;;;31.13;11.23;;;-1.00;99.90;;;;;;5020206;28;20310;-78
2021/12/23 03:08:51;;;;;;;28.90;12.23;;;-0.90;99.90;;;;;;5004693;28;20308;-78
2021/12/23 03:11:19;;;;;;;28.90;11.07;;;-0.80;99.90;;;;;;5031365;28;20026;-78
2021/12/23 03:13:46;;;;;;;27.60;11.13;;;-0.80;99.90;;;;;;5014853;28;20297;-77
2021/12/23 03:16:22;;;;;;;27.77;11.13;;;-0.90;99.90;;;;;;5029880;28;20300;-78
2021/12/23 03:18:56;;;;;;;24.03;10.80;;;-0.80;99.90;;;;;;5014429;28;20328;-78
2021/12/23 03:21:22;;;;;;;25.87;11.20;;;-0.90;99.90;;;;;;5029662;28;20301;-78
2021/12/23 03:23:51;;;;;;;26.43;11.37;;;-0.80;99.90;;;;;;5031579;28;20330;-78
2021/12/23 03:26:17;;;;;;;26.90;11.67;;;-0.80;99.90;;;;;;5016127;28;20145;-78
2021/12/23 03:28:45;;;;;;;26.03;11.30;;;-0.80;99.90;;;;;;5030928;28;20308;-76
2021/12/23 03:31:13;;;;;;;28.43;11.03;;;-0.80;99.90;;;;;;5017608;28;20273;-78
2021/12/23 03:33:39;;;;;;;28.07;10.37;;;-0.80;99.90;;;;;;5020716;28;20348;-79
2021/12/23 03:36:07;;;;;;;27.07;10.57;;;-1.00;99.90;;;;;;5030971;28;20278;-76
2021/12/23 03:38:33;;;;;;;29.80;12.23;;;-1.10;99.90;;;;;;5029841;28;20034;-76
2021/12/23 03:41:02;;;;;;;31.30;12.53;;;-1.10;99.90;;;;;;5018774;28;20278;-76
2021/12/23 03:43:29;;;;;;;24.50;11.43;;;-1.00;99.90;;;;;;5015866;28;20027;-78
2021/12/23 03:46:05;;;;;;;22.43;10.30;;;-1.00;99.90;;;;;;5019743;28;20305;-76
2021/12/23 03:48:40;;;;;;;28.50;10.47;;;-0.90;99.90;;;;;;5031485;28;20282;-78
2021/12/23 03:51:14;;;;;;;30.60;12.73;;;-1.00;99.90;;;;;;5031865;28;20491;-78
2021/12/23 03:53:43;;;;;;;28.80;11.37;;;-1.00;99.90;;;;;;5019517;28;20277;-76
2021/12/23 03:56:18;;;;;;;27.90;11.27;;;-1.10;99.90;;;;;;5031940;28;20309;-76
2021/12/23 03:58:54;;;;;;;28.60;11.90;;;-0.90;99.90;;;;;;5015029;28;20293;-76
2021/12/23 04:01:21;;;;;;;23.40;10.90;;;-1.00;99.90;;;;;;5029033;28;20281;-76
2021/12/23 04:03:49;;;;;;;26.37;11.87;;;-1.00;99.90;;;;;;5020612;28;20347;-76
2021/12/23 04:06:18;;;;;;;24.43;11.23;;;-0.80;99.90;;;;;;5016856;28;20309;-76
2021/12/23 04:08:49;;;;;;;23.80;10.70;;;-0.80;99.90;;;;;;5019239;28;20281;-76
2021/12/23 04:11:19;;;;;;;28.77;11.90;;;-0.80;99.90;;;;;;5015935;28;20281;-77
2021/12/23 04:13:48;;;;;;;24.40;11.03;;;-0.90;99.90;;;;;;5016854;28;20280;-76
2021/12/23 04:16:14;;;;;;;25.90;11.07;;;-0.80;99.90;;;;;;5015850;28;20290;-76
2021/12/23 04:18:49;;;;;;;26.37;12.23;;;-0.80;99.90;;;;;;5030034;28;20300;-76
2021/12/23 04:21:15;;;;;;;24.90;12.07;;;-0.90;99.90;;;;;;5019473;28;20323;-77
2021/12/23 04:23:43;;;;;;;25.27;9.90;;;-0.90;99.90;;;;;;5019230;28;20292;-77
2021/12/23 04:26:12;;;;;;;30.17;11.17;;;-0.80;99.90;;;;;;5014149;28;20045;-77
2021/12/23 04:28:46;;;;;;;27.90;11.33;;;-0.80;99.90;;;;;;5019003;28;20293;-77
2021/12/23 04:31:16;;;;;;;25.43;10.97;;;-0.90;99.90;;;;;;5028833;28;20301;-77
2021/12/23 04:33:43;;;;;;;25.47;11.57;;;-0.80;99.90;;;;;;5014733;28;20449;-77
2021/12/23 04:36:09;;;;;;;31.97;11.77;;;-1.00;99.90;;;;;;5029379;28;20284;-77
2021/12/23 04:38:47;;;;;;;22.43;10.67;;;-1.10;99.90;;;;;;5030282;28;20293;-77
2021/12/23 04:41:16;;;;;;;22.57;10.33;;;-1.10;99.90;;;;;;5029370;28;20288;-77
2021/12/23 04:43:42;;;;;;;28.07;11.27;;;-1.00;99.90;;;;;;5029906;28;20372;-77
2021/12/23 04:46:13;;;;;;;26.90;11.73;;;-1.00;99.90;;;;;;5029597;28;20320;-77
2021/12/23 04:48:45;;;;;;;25.67;10.70;;;-1.00;99.90;;;;;;5029241;28;20018;-78
2021/12/23 04:51:14;;;;;;;29.53;11.77;;;-0.90;99.90;;;;;;5002601;28;20290;-77
2021/12/23 04:53:44;;;;;;;23.53;11.43;;;-1.10;99.90;;;;;;5002294;28;20275;-77
2021/12/23 04:56:13;;;;;;;27.20;11.10;;;-1.10;99.90;;;;;;5015910;28;20289;-77
2021/12/23 04:58:48;;;;;;;27.20;11.50;;;-1.20;99.90;;;;;;5014925;28;20280;-77
2021/12/23 05:01:28;;;;;;;26.30;10.70;;;-1.10;99.90;;;;;;5016983;28;20281;-77
2021/12/23 05:03:54;;;;;;;29.50;12.20;;;-1.10;99.90;;;;;;5013619;28;20273;-77
2021/12/23 05:06:25;;;;;;;30.97;11.00;;;-1.20;99.90;;;;;;5002702;28;20281;-77
2021/12/23 05:09:40;;;;;;;;;;;;;;;;;;;;;
2021/12/23 05:12:07;;;;;;;23.47;10.73;;;-1.40;99.90;;;;;;5012648;28;20298;-77
2021/12/23 05:14:43;;;;;;;31.17;11.83;;;-1.50;99.90;;;;;;5027606;28;20285;-77
2021/12/23 05:17:18;;;;;;;31.57;12.63;;;-1.50;99.90;;;;;;5018490;28;20312;-77
2021/12/23 05:19:44;;;;;;;29.50;13.00;;;-1.60;99.90;;;;;;5018078;28;20551;-77
2021/12/23 05:22:10;;;;;;;34.30;12.87;;;-1.70;99.90;;;;;;5019377;28;20269;-77
2021/12/23 05:24:50;;;;;;;31.80;12.67;;;-1.80;99.90;;;;;;5015103;28;20040;-76
2021/12/23 05:27:31;;;;;;;30.27;12.27;;;-1.70;99.90;;;;;;5012066;28;20023;-77
2021/12/23 05:29:57;;;;;;;29.97;13.47;;;-1.80;99.90;;;;;;5014452;28;20355;-77
2021/12/23 05:32:30;;;;;;;29.73;11.93;;;-1.80;99.90;;;;;;5017929;28;20289;-77
2021/12/23 05:34:58;;;;;;;;;;;-1.70;99.90;;;;;;5014437;28;20026;-77
2021/12/23 05:37:24;;;;;;;34.33;11.67;;;-1.70;99.90;;;;;;5029029;28;19910;-77
2021/12/23 05:39:58;;;;;;;25.57;11.60;;;-1.80;99.90;;;;;;5014733;28;20570;-77
2021/12/23 05:42:26;;;;;;;26.07;12.00;;;-1.80;99.90;;;;;;5001361;28;20034;-77
2021/12/23 05:44:56;;;;;;;28.60;12.70;;;-1.80;99.90;;;;;;5028484;28;20309;-77
2021/12/23 05:47:25;;;;;;;28.77;11.97;;;-1.80;99.90;;;;;;5029003;28;20290;-77
2021/12/23 05:49:56;;;;;;;34.07;13.70;;;-1.70;99.90;;;;;;5026454;28;20287;-78
2021/12/23 05:52:27;;;;;;;34.23;11.47;;;-1.60;99.90;;;;;;5014292;28;20512;-77
2021/12/23 05:54:57;;;;;;;30.23;12.10;;;-1.50;99.90;;;;;;5013907;28;20497;-77
2021/12/23 05:57:23;;;;;;;25.90;11.23;;;-1.40;99.90;;;;;;5013501;28;20273;-77
2021/12/23 05:59:49;;;;;;;29.10;12.63;;;-1.30;99.90;;;;;;5027654;28;20332;-77
2021/12/23 06:02:17;;;;;;;32.50;12.83;;;-1.20;99.90;;;;;;5001235;28;20323;-77
2021/12/23 06:04:48;;;;;;;33.97;13.57;;;-1.20;99.90;;;;;;5014594;28;20061;-77
2021/12/23 06:07:21;;;;;;;27.23;11.80;;;-1.20;99.90;;;;;;5028904;28;20277;-77
2021/12/23 06:09:47;;;;;;;33.43;13.40;;;-1.10;99.90;;;;;;5018064;28;20273;-77
2021/12/23 06:12:18;;;;;;;37.30;13.83;;;-1.10;99.90;;;;;;5013909;28;20299;-77
2021/12/23 06:14:56;;;;;;;;;;;;;;;;;;;;;
2021/12/23 06:17:22;;;;;;;31.10;12.30;;;-0.90;99.90;;;;;;5013623;28;20317;-76
2021/12/23 06:19:50;;;;;;;26.50;11.83;;;-0.80;99.90;;;;;;5016673;28;20283;-76
2021/12/23 06:22:19;;;;;;;31.67;12.80;;;-0.70;99.90;;;;;;5027798;28;20033;-76
2021/12/23 06:24:47;;;;;;;26.07;12.80;;;-0.70;99.90;;;;;;5028091;28;20289;-76
2021/12/23 06:27:17;;;;;;;26.80;11.83;;;-0.60;99.90;;;;;;5003112;28;20297;-76
2021/12/23 06:29:46;;;;;;;25.63;11.40;;;-0.60;99.90;;;;;;5016423;28;20272;-77
2021/12/23 06:32:14;;;;;;;24.87;11.30;;;-0.60;99.90;;;;;;5022042;28;20301;-77
2021/12/23 06:34:43;;;;;;;27.20;12.50;;;-0.50;99.90;;;;;;5017541;28;20375;-77
2021/12/23 06:37:09;;;;;;;30.57;12.23;;;-0.60;99.90;;;;;;5017478;28;20297;-77
2021/12/23 06:39:39;;;;;;;26.53;11.53;;;-0.50;99.90;;;;;;5022405;28;20303;-77
2021/12/23 06:42:08;;;;;;;37.70;12.57;;;-0.60;99.90;;;;;;5018211;28;20026;-77
2021/12/23 06:44:38;;;;;;;30.50;12.27;;;-0.50;99.90;;;;;;5017889;28;20289;-77
2021/12/23 06:47:07;;;;;;;31.70;12.37;;;-0.60;99.90;;;;;;5031564;28;20385;-77
2021/12/23 06:49:33;;;;;;;27.87;11.73;;;-0.40;99.90;;;;;;5021623;28;20312;-76
2021/12/23 06:52:00;;;;;;;25.87;11.27;;;-0.50;99.90;;;;;;5020792;28;20280;-77
2021/12/23 06:54:28;;;;;;;27.50;11.40;;;-0.50;99.90;;;;;;5017701;28;20770;-76
2021/12/23 06:56:56;;;;;;;29.50;12.33;;;-0.50;99.90;;;;;;5021456;28;20293;-76
2021/12/23 06:59:22;;;;;;;32.70;12.37;;;-0.40;99.90;;;;;;5031598;28;20281;-77
2021/12/23 07:01:53;;;;;;;32.10;11.63;;;-0.40;99.90;;;;;;5031050;28;20289;-77
2021/12/23 07:04:22;;;;;;;29.27;10.97;;;-0.50;99.90;;;;;;5018133;28;20029;-77
2021/12/23 07:07:07;;;;;;;27.53;11.40;;;-0.50;99.90;;;;;;5016815;28;20277;-77
2021/12/23 07:09:38;;;;;;;22.63;11.20;;;-0.40;99.90;;;;;;5015892;28;20276;-76
2021/12/23 07:12:05;;;;;;;30.20;12.03;;;-0.40;99.90;;;;;;5030945;28;20332;-77
2021/12/23 07:14:37;;;;;;;30.30;11.37;;;-0.30;99.90;;;;;;5004353;28;20332;-77
2021/12/23 07:17:12;;;;;;;22.23;9.90;;;-0.30;99.90;;;;;;5017022;28;20403;-77
2021/12/23 07:19:38;;;;;;;27.43;12.07;;;-0.30;99.90;;;;;;5003025;28;20285;-76
2021/12/23 07:22:04;;;;;;;27.27;12.10;;;-0.20;99.90;;;;;;5020383;28;20315;-76
2021/12/23 07:24:37;;;;;;;28.73;11.80;;;-0.20;99.90;;;;;;5016660;28;20039;-76
2021/12/23 07:27:05;;;;;;;30.00;11.03;;;-0.30;99.90;;;;;;5031328;28;20034;-77
2021/12/23 07:29:32;;;;;;;26.97;11.03;;;-0.30;99.90;;;;;;5016322;28;20285;-77
2021/12/23 07:32:02;;;;;;;27.53;11.23;;;-0.40;99.90;;;;;;5016178;28;20292;-77
2021/12/23 07:34:34;;;;;;;25.33;11.70;;;-0.40;99.90;;;;;;5030750;28;20333;-77
2021/12/23 07:37:02;;;;;;;26.00;11.30;;;-0.40;99.90;;;;;;5015677;28;20309;-76
2021/12/23 07:39:30;;;;;;;31.87;11.07;;;-0.40;99.90;;;;;;5030250;28;20028;-77
2021/12/23 07:42:07;;;;;;;27.60;12.80;;;-0.20;99.90;;;;;;5018866;28;20281;-77
2021/12/23 07:44:40;;;;;;;29.30;11.20;;;-0.20;99.90;;;;;;5015860;28;20331;-78
2021/12/23 07:47:17;;;;;;;25.40;11.53;;;-0.30;99.90;;;;;;5029998;28;20277;-77
2021/12/23 07:49:50;;;;;;;28.00;11.33;;;-0.20;99.90;;;;;;5016398;28;20300;-77
2021/12/23 07:52:40;;;;;;;29.30;11.93;;;-0.10;99.90;;;;;;5030635;28;20289;-77
2021/12/23 07:55:06;;;;;;;23.60;10.57;;;-0.20;99.90;;;;;;5029295;28;20794;-77
2021/12/23 07:57:35;;;;;;;29.03;12.07;;;-0.20;99.90;;;;;;5018988;28;20289;-77
2021/12/23 08:00:04;;;;;;;27.93;11.97;;;-0.10;99.90;;;;;;5020405;28;21562;-77
2021/12/23 08:02:33;;;;;;;28.47;11.67;;;0.10;99.90;;;;;;5030907;28;20293;-77
2021/12/23 08:05:01;;;;;;;26.07;11.60;;;0.00;99.90;;;;;;5020133;28;20323;-77
2021/12/23 08:07:40;;;;;;;25.47;11.63;;;0.10;99.90;;;;;;5014553;28;20281;-77
2021/12/23 08:10:11;;;;;;;26.60;11.40;;;0.20;99.90;;;;;;5030513;28;20284;-77
2021/12/23 08:12:37;;;;;;;26.73;12.20;;;0.20;99.90;;;;;;5003320;28;20351;-77
2021/12/23 08:15:07;;;;;;;25.80;11.03;;;0.30;99.90;;;;;;5019704;28;20285;-77
2021/12/23 08:17:36;;;;;;;23.87;11.00;;;0.20;99.90;;;;;;5019094;28;20022;-77
2021/12/23 08:20:04;;;;;;;28.47;11.57;;;0.40;99.90;;;;;;5012414;28;20293;-77
2021/12/23 08:22:32;;;;;;;27.63;12.10;;;0.40;99.90;;;;;;5031362;28;20365;-77
2021/12/23 08:25:07;;;;;;;27.27;11.73;;;0.40;99.90;;;;;;5015219;28;20276;-77
2021/12/23 08:27:35;;;;;;;26.93;11.43;;;0.30;99.90;;;;;;5019210;28;20290;-78
2021/12/23 08:30:03;;;;;;;29.20;11.63;;;0.40;99.90;;;;;;5030434;28;20319;-77
2021/12/23 08:32:29;;;;;;;21.60;9.83;;;0.60;99.90;;;;;;5014642;28;20392;-77
2021/12/23 08:34:57;;;;;;;23.80;9.73;;;0.70;99.90;;;;;;5015714;28;20281;-78
2021/12/23 08:37:22;;;;;;;27.50;11.70;;;0.70;99.90;;;;;;5014421;28;20039;-78
2021/12/23 08:39:53;;;;;;;29.60;11.07;;;0.60;99.90;;;;;;5018281;28;20298;-77
2021/12/23 08:42:27;;;;;;;26.53;10.70;;;0.70;99.90;;;;;;5015641;28;20023;-78
2021/12/23 08:45:07;;;;;;;24.37;10.10;;;0.80;99.90;;;;;;5014427;28;20554;-77
2021/12/23 08:47:51;;;;;;;22.10;10.27;;;0.80;99.90;;;;;;5019193;28;20293;-78
2021/12/23 08:50:25;;;;;;;23.60;10.30;;;1.00;99.90;;;;;;5001191;28;20273;-78
2021/12/23 08:53:07;;;;;;;;;;;;;;;;;;;;;
2021/12/23 08:55:44;;;;;;;30.50;11.82;;;1.10;99.90;;;;;;5013442;28;20305;-77
2021/12/23 08:58:09;;;;;;;24.60;11.33;;;1.00;99.90;;;;;;5019358;28;20027;-77
2021/12/23 09:00:42;;;;;;;35.03;11.53;;;1.10;99.90;;;;;;5017416;28;20380;-77
2021/12/23 09:03:26;;;;;;;27.50;10.82;;;1.20;99.90;;;;;;5019011;28;20026;-77
2021/12/23 09:06:00;;;;;;;21.40;9.77;;;1.10;99.90;;;;;;5174059;22;20042;-77
2021/12/23 09:08:29;;;;;;;25.37;10.87;;;1.20;99.90;;;;;;5027280;28;20331;-78
2021/12/23 09:11:02;;;;;;;25.33;11.10;;;1.30;99.90;;;;;;5025103;28;20269;-77
2021/12/23 09:13:29;;;;;;;25.87;11.00;;;1.30;99.90;;;;;;5038324;28;20404;-77
2021/12/23 09:16:18;;;;;;;32.60;11.80;;;1.40;99.90;;;;;;5040507;28;20282;-77
2021/12/23 09:18:46;;;;;;;31.53;11.20;;;1.50;99.90;;;;;;5022107;28;20304;-78
2021/12/23 09:21:32;;;;;;;26.53;10.23;;;1.50;99.90;;;;;;5023938;28;20296;-78
2021/12/23 09:24:06;;;;;;;40.23;11.23;;;1.50;99.90;;;;;;5026217;28;20297;-78
2021/12/23 09:26:41;;;;;;;32.77;10.53;;;1.60;99.90;;;;;;5022614;28;20328;-78
2021/12/23 09:32:39;;;;;;;27.17;10.57;;;1.70;99.90;;;;;;5039383;28;20276;-77
2021/12/23 09:35:11;;;;;;;24.80;10.83;;;1.90;99.90;;;;;;5125556;22;20315;-77
2021/12/23 09:37:37;;;;;;;21.57;9.67;;;2.00;99.90;;;;;;5033463;28;20304;-77
2021/12/23 09:40:06;;;;;;;23.40;10.47;;;2.00;99.90;;;;;;5034357;28;20292;-78
2021/12/23 09:42:36;;;;;;;24.17;10.73;;;2.20;99.90;;;;;;5033973;28;20038;-78
2021/12/23 09:45:11;;;;;;;24.00;10.57;;;2.30;99.90;;;;;;5034546;28;20304;-78
2021/12/23 09:47:41;;;;;;;27.27;10.90;;;2.40;99.90;;;;;;5035709;28;20284;-78
2021/12/23 09:50:15;;;;;;;24.57;10.80;;;2.50;99.90;;;;;;5036225;28;20288;-78
2021/12/23 09:52:46;;;;;;;27.57;10.57;;;2.50;99.90;;;;;;5038476;28;20311;-78
2021/12/23 09:55:27;;;;;;;25.50;10.20;;;2.60;99.90;;;;;;5034923;28;20315;-78
2021/12/23 09:57:56;;;;;;;23.67;10.20;;;2.70;99.90;;;;;;5302764;22;20303;-78
2021/12/23 10:00:28;;;;;;;25.93;10.67;;;2.70;99.90;;;;;;5048876;28;20348;-78
2021/12/23 10:02:57;;;;;;;26.13;10.90;;;2.60;99.90;;;;;;5039808;28;20270;-78
2021/12/23 10:05:26;;;;;;;26.70;10.80;;;2.70;99.90;;;;;;5035700;28;20025;-77
2021/12/23 10:10:41;;;;;;;29.00;11.00;;;2.90;99.90;;;;;;5037332;28;20252;-78
2021/12/23 10:28:39;;;;;;;23.27;11.07;;;3.30;99.90;;;;;;5036018;28;20315;-78
2021/12/23 10:30:49;;;;;;;;;;;;;;;;;;;;;
2021/12/23 10:38:50;;;;;;;30.37;10.53;;;3.40;99.90;;;;;;5034444;28;20288;-80
2021/12/23 10:41:26;;;;;;;31.87;10.33;;;3.60;99.90;;;;;;5033969;28;20340;-81
2021/12/23 10:46:41;;;;;;;26.10;10.17;;;3.70;99.90;;;;;;5074338;22;20308;-78
2021/12/23 10:52:02;;;;;;;19.80;9.60;;;3.70;99.20;;;;;;5050443;28;20286;-80
2021/12/23 10:58:06;;;;;;;23.27;9.43;;;3.90;99.70;;;;;;5050324;28;20294;-77
2021/12/23 11:00:41;;;;;;;23.23;8.97;;;3.90;99.30;;;;;;5066267;28;20277;-80
2021/12/23 11:03:33;;;;;;;22.60;9.83;;;3.90;99.30;;;;;;5048967;28;20288;-78
2021/12/23 11:06:19;;;;;;;21.52;9.98;;;3.90;99.00;;;;;;5067326;28;20316;-78
2021/12/23 11:09:08;;;;;;;23.87;9.70;;;4.10;99.20;;;;;;5067251;28;20065;-79
2021/12/23 11:30:02;;;;;;;22.27;9.27;;;4.10;99.50;;;;;;5048489;28;20093;-80
2021/12/23 11:35:33;;;;;;;27.77;9.97;;;4.10;99.50;;;;;;5049065;28;20272;-78
2021/12/23 11:38:08;;;;;;;25.20;10.07;;;4.10;99.20;;;;;;5047987;28;20272;-80
2021/12/23 11:45:51;;;;;;;23.60;10.43;;;4.10;99.10;;;;;;5049687;28;20303;-80
2021/12/23 11:48:51;;;;;;;27.97;10.43;;;4.30;99.10;;;;;;5052714;28;20286;-80
2021/12/23 11:54:21;;;;;;;24.50;9.70;;;4.30;99.20;;;;;;5050685;28;20307;-79
2021/12/23 11:56:58;;;;;;;22.60;8.33;;;4.30;99.10;;;;;;5064939;28;20315;-79
2021/12/23 11:59:32;;;;;;;23.07;9.10;;;4.30;99.00;;;;;;5063956;28;20319;-80
2021/12/23 12:02:34;;;;;;;25.00;9.93;;;4.30;99.00;;;;;;5050011;28;20120;-80
2021/12/23 12:05:24;;;;;;;21.77;8.93;;;4.50;98.70;;;;;;5048965;28;20292;-81
2021/12/23 12:08:15;;;;;;;27.37;9.40;;;4.50;98.90;;;;;;5051328;28;20276;-80
2021/12/23 12:11:21;;;;;;;25.27;9.60;;;4.50;99.30;;;;;;5065545;28;20053;-80
2021/12/23 12:14:01;;;;;;;20.70;8.87;;;4.50;98.80;;;;;;5044810;28;20271;-80
2021/12/23 12:16:34;;;;;;;25.50;10.47;;;4.40;98.50;;;;;;5048254;28;20459;-79
2021/12/23 12:19:03;;;;;;;;;;;4.40;99.10;;;;;;5054080;28;20272;-80
2021/12/23 12:22:11;;;;;;;25.37;10.40;;;4.20;99.10;;;;;;5052216;28;19909;-80
2021/12/23 12:24:48;;;;;;;25.23;9.77;;;4.30;99.40;;;;;;5066786;28;20328;-80
2021/12/23 12:27:31;;;;;;;26.97;10.67;;;4.30;99.80;;;;;;5060170;28;20281;-80
2021/12/23 12:30:16;;;;;;;;;;;;;;;;;;;;;
2021/12/23 12:32:48;;;;;;;23.23;9.67;;;4.30;99.80;;;;;;5048444;28;19933;-79
2021/12/23 12:35:34;;;;;;;21.63;9.10;;;4.40;99.40;;;;;;5065343;28;20357;-80
2021/12/23 12:38:23;;;;;;;26.00;9.53;;;4.40;99.40;;;;;;5059488;28;20295;-79
2021/12/23 12:41:07;;;;;;;24.90;10.60;;;4.40;99.80;;;;;;5066375;28;20298;-79
2021/12/23 12:46:46;;;;;;;25.90;10.48;;;4.40;99.90;;;;;;5043362;22;20288;-80
2021/12/23 12:50:15;;;;;;;28.27;10.23;;;4.30;99.60;;;;;;5036901;28;20010;-80
2021/12/23 12:53:04;;;;;;;25.40;10.63;;;4.40;99.60;;;;;;5036782;28;20275;-80
2021/12/23 12:55:59;;;;;;;22.23;9.73;;;4.50;99.70;;;;;;5032373;28;20277;-80
2021/12/23 12:58:54;;;;;;;24.00;8.80;;;4.60;99.60;;;;;;5029130;28;20412;-81
2021/12/23 13:01:37;;;;;;;19.77;9.13;;;4.70;99.70;;;;;;5032693;28;20049;-81
2021/12/23 13:27:28;;;;;;;23.47;9.03;;;5.40;99.10;;;;;;4992181;28;20073;-79
2021/12/23 13:44:14;;;;;;;22.20;9.53;;;5.40;99.20;;;;;;5502952;22;20030;-79
2021/12/23 13:46:56;;;;;;;23.37;9.37;;;5.30;99.50;;;;;;5050975;28;20018;-79
2021/12/23 13:49:42;;;;;;;23.53;10.17;;;5.30;99.90;;;;;;5044802;28;20140;-78
2021/12/23 13:52:10;;;;;;;19.67;8.97;;;5.20;99.70;;;;;;5048354;28;20017;-80
2021/12/23 13:54:48;;;;;;;23.20;8.93;;;5.20;99.90;;;;;;5049083;28;20156;-79
2021/12/23 13:57:22;;;;;;;26.43;9.00;;;5.10;99.90;;;;;;5063001;28;20489;-80
2021/12/23 13:59:50;;;;;;;23.63;9.00;;;5.00;99.90;;;;;;5044667;28;20017;-79
2021/12/23 14:02:20;;;;;;;24.13;9.60;;;4.90;99.90;;;;;;5045385;28;20013;-80
2021/12/23 14:05:07;;;;;;;26.20;10.17;;;4.80;99.90;;;;;;5059599;23;20047;-79
2021/12/23 14:07:44;;;;;;;23.87;9.60;;;4.80;99.90;;;;;;5024289;28;20022;-79
2021/12/23 14:10:21;;;;;;;25.37;10.57;;;4.80;99.90;;;;;;5009223;28;21111;-78
2021/12/23 14:12:56;;;;;;;22.57;9.27;;;4.80;99.90;;;;;;5130322;22;20034;-78
2021/12/23 14:15:29;;;;;;;22.93;9.17;;;4.80;99.90;;;;;;5014959;28;20412;-78
2021/12/23 14:18:12;;;;;;;23.33;8.50;;;4.70;99.90;;;;;;5005896;28;20064;-79
2021/12/23 14:23:34;;;;;;;19.77;6.67;;;5.10;99.90;;;;;;4987502;28;20027;-75
2021/12/23 14:26:03;;;;;;;17.20;6.83;;;5.30;99.90;;;;;;4986916;28;20077;-77
2021/12/23 14:28:28;;;;;;;19.80;8.43;;;5.40;99.90;;;;;;4987602;28;20085;-75
2021/12/23 14:31:01;;;;;;;21.97;7.50;;;5.40;99.90;;;;;;4986636;28;20030;-76
2021/12/23 14:33:36;;;;;;;28.10;8.52;;;5.40;99.90;;;;;;5001463;28;20034;-74
2021/12/23 14:36:07;;;;;;;18.23;7.37;;;5.40;99.90;;;;;;4985412;28;20034;-76
2021/12/23 14:38:42;;;;;;;19.07;7.80;;;5.40;99.90;;;;;;4985636;28;20030;-74
2021/12/23 14:41:08;;;;;;;19.87;7.17;;;5.40;99.90;;;;;;4984472;28;20026;-76
2021/12/23 14:44:00;;;;;;;23.10;7.97;;;5.40;99.90;;;;;;4986078;28;20447;-75
2021/12/23 14:46:33;;;;;;;18.10;6.90;;;5.40;99.90;;;;;;4980747;28;20046;-75
2021/12/23 14:51:38;;;;;;;22.37;9.33;;;5.40;99.90;;;;;;4990136;28;20050;-75
2021/12/23 14:54:17;;;;;;;19.20;7.23;;;5.40;99.90;;;;;;4989331;28;20066;-76
2021/12/23 14:56:51;;;;;;;21.00;7.20;;;5.30;99.90;;;;;;4989732;28;20490;-76
2021/12/23 14:59:20;;;;;;;15.93;7.27;;;5.40;99.90;;;;;;4989655;28;20026;-75
2021/12/23 15:02:02;;;;;;;19.90;8.77;;;5.30;99.90;;;;;;5004630;28;20038;-76
2021/12/23 15:04:30;;;;;;;16.17;7.05;;;5.30;99.90;;;;;;4988249;28;20366;-75